SBSM/RIA METAR and TAF weather

Enter ICAO airport designator
Station Type Date Time Source
SBSM METAR 2019/02/23 00:00 UTC NOAA

SBSM 230000Z VRB02KT CAVOK 25/23 Q1010


Station Type Date Time Source
SBSM Decoded METAR 2019/02/23 00:00 UTC NOAA

Santa Maria Aero-Porto , Brazil (SBSM) 29-43S 053-42W
Feb 22, 2019 - 07:00 PM EST / 2019.02.23 0000 UTC
Wind: Variable at 2 MPH (2 KT):0
Visibility: greater than 7 mile(s):0
Temperature: 77 F (25 C)
Dew Point: 73 F (23 C)
Relative Humidity: 88%
Pressure (altimeter): 29.83 in. Hg (1010 hPa)
ob: SBSM 230000Z VRB02KT CAVOK 25/23 Q1010
cycle: 0

Station Type Date Time Source
SBSM TAF 2019/02/23 00:33 UTC NOAA

TAF SBSM 222100Z 2300/2312 08005KT CAVOK TN20/2308Z TX29/2312Z
BECMG 2309/2311 35010KT
RMK PDW


Example: see airport list